Time;durP1;ratioP1;P1;durP2;ratioP2;P2;SDS_P1;SDS_P2;PMS_P1;PMS_P2;Temp;Humidity;BMP_temperature;BMP_pressure;BME280_temperature;BME280_humidity;BME280_pressure;Samples;Min_cycle;Max_cycle;Signal;HPM_P1;HPM_P2
2022/05/03 00:01:23;;;;;;;7.50;5.13;;;;;;;;;;5085650;28;20540;-70
2022/05/03 00:03:56;;;;;;;9.15;4.88;;;;;;;;;;5083156;28;20048;-69
2022/05/03 00:06:29;;;;;;;6.10;4.70;;;;;;;;;;5084604;28;20047;-69
2022/05/03 00:09:02;;;;;;;6.10;4.90;;;;;;;;;;5083114;28;20059;-70
2022/05/03 00:11:31;;;;;;;8.15;5.55;;;;;;;;;;5085261;28;20055;-69
2022/05/03 00:14:04;;;;;;;8.85;6.10;;;;;;;;;;5082361;28;20044;-70
2022/05/03 00:16:31;;;;;;;8.40;6.03;;;;;;;;;;5084402;28;20474;-69
2022/05/03 00:19:01;;;;;;;9.13;6.70;;;;;;;;;;5086785;28;20109;-69
2022/05/03 00:21:28;;;;;;;8.02;6.43;;;;;;;;;;5082238;28;20109;-70
2022/05/03 00:23:56;;;;;;;9.05;6.97;;;;;;;;;;5090084;28;20052;-69
2022/05/03 00:26:24;;;;;;;10.13;6.57;;;;;;;;;;5082913;28;20052;-69
2022/05/03 00:28:53;;;;;;;9.00;6.38;;;;;;;;;;5088463;28;20614;-70
2022/05/03 00:31:21;;;;;;;10.43;6.93;;;;;;;;;;5084751;28;20055;-69
2022/05/03 00:33:49;;;;;;;10.35;7.85;;;;;;;;;;5086246;28;20050;-70
2022/05/03 00:36:18;;;;;;;7.85;6.85;;;;;;;;;;5086497;28;20059;-70
2022/05/03 00:38:45;;;;;;;9.85;7.53;;;;;;;;;;5084579;28;20062;-70
2022/05/03 00:41:14;;;;;;;10.52;8.25;;;;;;;;;;5084011;28;20048;-70
2022/05/03 00:43:48;;;;;;;8.73;7.38;;;;;;;;;;5083994;28;20052;-69
2022/05/03 00:46:17;;;;;;;11.80;7.18;;;;;;;;;;5082456;28;20485;-70
2022/05/03 00:48:51;;;;;;;10.75;8.73;;;;;;;;;;5084518;28;20056;-70
2022/05/03 00:51:22;;;;;;;8.82;7.80;;;;;;;;;;5096430;28;20374;-69
2022/05/03 00:53:58;;;;;;;10.15;8.35;;;;;;;;;;5077369;28;20059;-70
2022/05/03 00:56:31;;;;;;;11.45;8.20;;;;;;;;;;5082246;28;20170;-70
2022/05/03 00:59:02;;;;;;;12.80;8.48;;;;;;;;;;5085231;28;20131;-70
2022/05/03 01:01:33;;;;;;;12.30;8.05;;;;;;;;;;5085889;28;20052;-69
2022/05/03 01:04:13;;;;;;;10.02;7.68;;;;;;;;;;5085390;28;20136;-69
2022/05/03 01:06:50;;;;;;;12.15;8.40;;;;;;;;;;5081228;28;20056;-70
2022/05/03 01:09:21;;;;;;;8.98;7.65;;;;;;;;;;5085010;28;20048;-69
2022/05/03 01:11:55;;;;;;;13.35;8.43;;;;;;;;;;5102873;28;20051;-69
2022/05/03 01:14:29;;;;;;;9.43;7.82;;;;;;;;;;5076659;28;20382;-69
2022/05/03 01:17:00;;;;;;;10.75;7.82;;;;;;;;;;5083227;28;20055;-69
2022/05/03 01:19:47;;;;;;;11.27;8.18;;;;;;;;;;5084756;28;20052;-69
2022/05/03 01:22:25;;;;;;;10.77;8.45;;;;;;;;;;5084025;28;20410;-69
2022/05/03 01:25:06;;;;;;;10.23;8.77;;;;;;;;;;5089213;28;20051;-69
2022/05/03 01:27:50;;;;;;;13.00;9.38;;;;;;;;;;5083456;28;20055;-69
2022/05/03 01:30:19;;;;;;;11.70;9.45;;;;;;;;;;5083260;28;20542;-69
2022/05/03 01:32:47;;;;;;;11.48;9.02;;;;;;;;;;5085144;28;20051;-69
2022/05/03 01:35:15;;;;;;;12.10;9.57;;;;;;;;;;5086539;28;20051;-69
2022/05/03 01:37:59;;;;;;;11.77;9.85;;;;;;;;;;5083492;28;20135;-69
2022/05/03 01:40:35;;;;;;;11.43;9.98;;;;;;;;;;5085594;28;20055;-69
2022/05/03 01:43:09;;;;;;;11.90;9.82;;;;;;;;;;5085518;28;20056;-69
2022/05/03 01:45:43;;;;;;;13.95;10.05;;;;;;;;;;5083746;28;20075;-69
2022/05/03 01:48:18;;;;;;;12.60;9.85;;;;;;;;;;5083887;28;20131;-69
2022/05/03 01:50:47;;;;;;;11.30;9.65;;;;;;;;;;5083509;28;20055;-69
2022/05/03 01:53:16;;;;;;;14.10;10.43;;;;;;;;;;5083143;28;20052;-69
2022/05/03 01:55:59;;;;;;;15.60;9.45;;;;;;;;;;5084092;28;20056;-69
2022/05/03 01:58:31;;;;;;;12.00;9.23;;;;;;;;;;5081503;28;20064;-69
2022/05/03 02:01:03;;;;;;;13.98;9.68;;;;;;;;;;5081545;28;20064;-69
2022/05/03 02:03:31;;;;;;;13.47;10.40;;;;;;;;;;5082720;28;20142;-68
2022/05/03 02:06:01;;;;;;;13.57;10.23;;;;;;;;;;5082000;28;20062;-68
2022/05/03 02:08:33;;;;;;;12.23;10.93;;;;;;;;;;5086553;28;20503;-68
2022/05/03 02:11:04;;;;;;;13.43;10.77;;;;;;;;;;5088492;28;20062;-68
2022/05/03 02:16:31;;;;;;;13.77;12.30;;;;;;;;;;5085556;28;20047;-68
2022/05/03 02:19:06;;;;;;;14.50;11.30;;;;;;;;;;5085450;28;20174;-69
2022/05/03 02:21:34;;;;;;;16.40;12.88;;;;;;;;;;5090173;28;20158;-69
2022/05/03 02:24:03;;;;;;;15.50;12.18;;;;;;;;;;5091819;28;20055;-69
2022/05/03 02:26:38;;;;;;;15.35;12.52;;;;;;;;;;5084349;28;20047;-69
2022/05/03 02:29:08;;;;;;;17.42;13.45;;;;;;;;;;5088720;28;20044;-69
2022/05/03 02:31:43;;;;;;;18.17;13.38;;;;;;;;;;5089728;28;20129;-69
2022/05/03 02:34:18;;;;;;;15.52;13.02;;;;;;;;;;5086389;28;20143;-69
2022/05/03 02:36:56;;;;;;;18.13;12.73;;;;;;;;;;5086739;28;20052;-69
2022/05/03 02:39:29;;;;;;;15.63;13.18;;;;;;;;;;5089562;28;20113;-69
2022/05/03 02:41:58;;;;;;;16.33;13.48;;;;;;;;;;5086759;28;20474;-69
2022/05/03 02:44:27;;;;;;;17.38;13.93;;;;;;;;;;5085765;28;20044;-69
2022/05/03 02:46:58;;;;;;;15.73;12.95;;;;;;;;;;5086906;28;20121;-69
2022/05/03 02:49:43;;;;;;;15.50;13.43;;;;;;;;;;5083922;28;20437;-70
2022/05/03 02:52:14;;;;;;;18.10;13.27;;;;;;;;;;5085046;28;20052;-69
2022/05/03 02:54:49;;;;;;;16.00;13.23;;;;;;;;;;5087216;28;20061;-69
2022/05/03 02:57:20;;;;;;;15.77;13.82;;;;;;;;;;5083281;28;20075;-69
2022/05/03 03:02:44;;;;;;;16.73;14.43;;;;;;;;;;5101018;28;20149;-69
2022/05/03 03:05:12;;;;;;;16.38;13.10;;;;;;;;;;5087874;28;20059;-69
2022/05/03 03:07:47;;;;;;;17.80;14.25;;;;;;;;;;5086571;28;20105;-69
2022/05/03 03:10:16;;;;;;;17.25;14.02;;;;;;;;;;5086533;28;20060;-69
2022/05/03 03:12:46;;;;;;;19.10;13.70;;;;;;;;;;5088368;28;20059;-69
2022/05/03 03:15:16;;;;;;;18.00;13.95;;;;;;;;;;5085571;28;20055;-69
2022/05/03 03:17:46;;;;;;;20.35;15.45;;;;;;;;;;5086619;28;20055;-69
2022/05/03 03:20:14;;;;;;;19.27;15.38;;;;;;;;;;5088326;28;20044;-69
2022/05/03 03:22:42;;;;;;;19.00;15.38;;;;;;;;;;5086030;28;20067;-69
2022/05/03 03:25:10;;;;;;;19.75;15.85;;;;;;;;;;5086737;28;20047;-69
2022/05/03 03:27:37;;;;;;;19.10;16.65;;;;;;;;;;5085846;28;20056;-69
2022/05/03 03:30:06;;;;;;;22.98;17.42;;;;;;;;;;5085950;28;20082;-69
2022/05/03 03:32:34;;;;;;;21.77;16.88;;;;;;;;;;5084094;28;20132;-69
2022/05/03 03:35:03;;;;;;;21.00;17.17;;;;;;;;;;5085774;28;20052;-69
2022/05/03 03:37:32;;;;;;;21.77;19.08;;;;;;;;;;5081257;28;20101;-69
2022/05/03 03:40:00;;;;;;;21.42;17.10;;;;;;;;;;5085860;28;20562;-69
2022/05/03 03:42:28;;;;;;;24.98;18.73;;;;;;;;;;5086191;28;20125;-69
2022/05/03 03:44:56;;;;;;;20.42;16.67;;;;;;;;;;5087117;28;20401;-69
2022/05/03 03:47:23;;;;;;;23.65;17.38;;;;;;;;;;5085981;28;20063;-69
2022/05/03 03:49:51;;;;;;;20.48;15.68;;;;;;;;;;5080572;28;20093;-70
2022/05/03 03:52:20;;;;;;;22.42;16.25;;;;;;;;;;5084003;28;20055;-69
2022/05/03 03:54:47;;;;;;;21.70;17.02;;;;;;;;;;5085394;28;20059;-69
2022/05/03 03:57:15;;;;;;;24.27;17.92;;;;;;;;;;5085740;28;20060;-69
2022/05/03 03:59:43;;;;;;;25.05;18.13;;;;;;;;;;5090332;28;20055;-68
2022/05/03 04:02:10;;;;;;;21.27;17.25;;;;;;;;;;5085220;28;20967;-69
2022/05/03 04:04:38;;;;;;;21.60;17.38;;;;;;;;;;5085885;28;20055;-69
2022/05/03 04:07:06;;;;;;;23.67;18.02;;;;;;;;;;5087443;28;20120;-69
2022/05/03 04:09:35;;;;;;;22.65;18.48;;;;;;;;;;5084821;28;20043;-69
2022/05/03 04:12:03;;;;;;;25.45;19.90;;;;;;;;;;5087784;28;20108;-69
2022/05/03 04:14:30;;;;;;;25.95;18.90;;;;;;;;;;5085972;28;20044;-69
2022/05/03 04:16:58;;;;;;;21.88;18.45;;;;;;;;;;5085093;28;20048;-69
2022/05/03 04:19:25;;;;;;;27.63;21.48;;;;;;;;;;5084660;28;20063;-69
2022/05/03 04:21:52;;;;;;;25.95;19.08;;;;;;;;;;5085231;28;20497;-69
2022/05/03 04:24:20;;;;;;;24.13;19.50;;;;;;;;;;5085785;28;20044;-69
2022/05/03 04:26:49;;;;;;;22.25;18.50;;;;;;;;;;5080470;28;20056;-69
2022/05/03 04:29:20;;;;;;;24.80;19.55;;;;;;;;;;5084955;28;20059;-69
2022/05/03 04:31:47;;;;;;;27.45;20.17;;;;;;;;;;5082854;28;20052;-69
2022/05/03 04:34:14;;;;;;;25.17;19.10;;;;;;;;;;5084819;28;20052;-69
2022/05/03 04:36:41;;;;;;;27.70;21.13;;;;;;;;;;5085593;28;20117;-69
2022/05/03 04:39:09;;;;;;;27.35;19.25;;;;;;;;;;5085148;28;20052;-69
2022/05/03 04:41:36;;;;;;;29.27;22.15;;;;;;;;;;5084281;28;20098;-69
2022/05/03 04:44:05;;;;;;;38.58;26.05;;;;;;;;;;5085115;28;20080;-69
2022/05/03 04:46:32;;;;;;;49.22;28.92;;;;;;;;;;5087612;28;20044;-69
2022/05/03 04:48:59;;;;;;;49.67;29.58;;;;;;;;;;5085461;28;20113;-69
2022/05/03 04:51:26;;;;;;;50.05;29.55;;;;;;;;;;5085144;28;20710;-69
2022/05/03 04:53:54;;;;;;;48.60;27.77;;;;;;;;;;5085691;28;20854;-69
2022/05/03 04:56:22;;;;;;;42.03;24.63;;;;;;;;;;5084616;28;20043;-69
2022/05/03 04:58:50;;;;;;;42.30;24.80;;;;;;;;;;5086747;28;20040;-69
2022/05/03 05:01:19;;;;;;;43.63;25.73;;;;;;;;;;5086891;28;20071;-70
2022/05/03 05:03:46;;;;;;;38.65;20.73;;;;;;;;;;5085728;28;20060;-69
2022/05/03 05:06:14;;;;;;;34.75;19.95;;;;;;;;;;5085864;28;20048;-69
2022/05/03 05:08:41;;;;;;;33.53;19.77;;;;;;;;;;5080858;28;20615;-69
2022/05/03 05:11:09;;;;;;;34.33;19.10;;;;;;;;;;5087949;28;20052;-69
2022/05/03 05:13:37;;;;;;;33.95;19.85;;;;;;;;;;5090630;28;20121;-69
2022/05/03 05:16:04;;;;;;;31.45;19.25;;;;;;;;;;5084942;28;20101;-69
2022/05/03 05:18:33;;;;;;;31.85;18.52;;;;;;;;;;5085069;28;20060;-69
2022/05/03 05:21:00;;;;;;;31.00;18.20;;;;;;;;;;5084933;28;20121;-69
2022/05/03 05:23:27;;;;;;;27.15;17.10;;;;;;;;;;5087224;28;20043;-69
2022/05/03 05:25:55;;;;;;;22.23;14.75;;;;;;;;;;5085072;28;20056;-69
2022/05/03 05:28:22;;;;;;;17.45;12.63;;;;;;;;;;5083416;28;20056;-70
2022/05/03 05:30:51;;;;;;;17.33;12.68;;;;;;;;;;5084326;28;20052;-69
2022/05/03 05:33:20;;;;;;;16.63;11.77;;;;;;;;;;5079353;28;20048;-69
2022/05/03 05:35:49;;;;;;;11.57;9.52;;;;;;;;;;5084487;28;20066;-69
2022/05/03 05:38:17;;;;;;;17.25;9.80;;;;;;;;;;5085258;28;20047;-69
2022/05/03 05:40:46;;;;;;;14.60;8.45;;;;;;;;;;5085347;28;20106;-70
2022/05/03 05:43:13;;;;;;;16.05;7.97;;;;;;;;;;5079587;28;20044;-69
2022/05/03 05:45:40;;;;;;;16.27;7.07;;;;;;;;;;5084150;28;20779;-69
2022/05/03 05:48:08;;;;;;;22.42;6.68;;;;;;;;;;5083378;28;20072;-69
2022/05/03 05:50:36;;;;;;;26.63;6.57;;;;;;;;;;5077621;28;20063;-68
2022/05/03 05:55:49;;;;;;;23.52;5.65;;;;;;;;;;5079281;28;20158;-69
2022/05/03 05:58:16;;;;;;;21.42;5.95;;;;;;;;;;5081528;28;20048;-69
2022/05/03 06:00:43;;;;;;;15.98;4.57;;;;;;;;;;5076788;28;20067;-69
2022/05/03 06:03:11;;;;;;;20.73;4.95;;;;;;;;;;5082548;28;20051;-69
2022/05/03 06:05:38;;;;;;;23.83;5.40;;;;;;;;;;5082265;28;20044;-69
2022/05/03 06:08:07;;;;;;;24.27;5.80;;;;;;;;;;5076316;28;20063;-69
2022/05/03 06:10:34;;;;;;;25.38;6.25;;;;;;;;;;5077003;28;20055;-69
2022/05/03 06:13:02;;;;;;;22.80;5.70;;;;;;;;;;5077777;28;20060;-69
2022/05/03 06:15:30;;;;;;;29.20;5.65;;;;;;;;;;5081577;28;20126;-69
2022/05/03 06:17:57;;;;;;;24.30;5.88;;;;;;;;;;5086033;28;20063;-69
2022/05/03 06:20:24;;;;;;;29.10;5.68;;;;;;;;;;5088682;28;20452;-70
2022/05/03 06:22:51;;;;;;;22.42;6.25;;;;;;;;;;5086531;28;20063;-69
2022/05/03 06:25:20;;;;;;;33.83;6.13;;;;;;;;;;5088843;28;20453;-69
2022/05/03 06:27:47;;;;;;;25.90;5.75;;;;;;;;;;5080997;28;20056;-69
2022/05/03 06:30:15;;;;;;;27.77;6.55;;;;;;;;;;5083258;28;20056;-69
2022/05/03 06:32:43;;;;;;;29.35;6.43;;;;;;;;;;5073743;28;20064;-69
2022/05/03 06:35:11;;;;;;;21.15;5.43;;;;;;;;;;5079925;28;20152;-69
2022/05/03 06:37:39;;;;;;;22.27;5.40;;;;;;;;;;5082295;28;20080;-69
2022/05/03 06:40:08;;;;;;;22.63;5.13;;;;;;;;;;5085475;28;20494;-69
2022/05/03 06:42:38;;;;;;;18.42;4.30;;;;;;;;;;5084076;28;20048;-69
2022/05/03 06:45:06;;;;;;;21.85;4.20;;;;;;;;;;5077732;28;20056;-69
2022/05/03 06:47:33;;;;;;;17.95;3.88;;;;;;;;;;5076037;28;20051;-69
2022/05/03 06:50:00;;;;;;;21.58;4.50;;;;;;;;;;5081847;28;20078;-69
2022/05/03 06:52:28;;;;;;;22.98;3.85;;;;;;;;;;5075736;28;20044;-69
2022/05/03 06:54:55;;;;;;;16.20;3.90;;;;;;;;;;5077799;28;20417;-69
2022/05/03 06:57:22;;;;;;;22.73;4.15;;;;;;;;;;5085285;28;20044;-69
2022/05/03 06:59:51;;;;;;;14.70;3.55;;;;;;;;;;5082423;28;20219;-70
2022/05/03 07:02:18;;;;;;;20.10;4.00;;;;;;;;;;5078635;28;20786;-69
2022/05/03 07:04:46;;;;;;;24.00;4.47;;;;;;;;;;5082791;28;20518;-70
2022/05/03 07:07:13;;;;;;;17.33;3.38;;;;;;;;;;5087096;28;20950;-69
2022/05/03 07:09:41;;;;;;;20.55;3.88;;;;;;;;;;5086471;28;20044;-69
2022/05/03 07:12:09;;;;;;;20.08;3.80;;;;;;;;;;5086874;28;20075;-69
2022/05/03 07:14:36;;;;;;;24.77;4.30;;;;;;;;;;5086289;28;20056;-69
2022/05/03 07:17:05;;;;;;;27.92;4.45;;;;;;;;;;5087422;28;20129;-69
2022/05/03 07:22:47;;;;;;;21.10;3.40;;;;;;;;;;5018866;28;20048;-70
2022/05/03 07:25:16;;;;;;;23.20;4.30;;;;;;;;;;5048640;28;20053;-69
2022/05/03 07:27:44;;;;;;;20.25;4.43;;;;;;;;;;5055892;28;20740;-69
2022/05/03 07:30:11;;;;;;;13.35;3.38;;;;;;;;;;5087609;28;20739;-70
2022/05/03 07:32:40;;;;;;;16.23;3.33;;;;;;;;;;5084881;28;21128;-70
2022/05/03 07:35:07;;;;;;;17.23;3.70;;;;;;;;;;5086497;28;20060;-69
2022/05/03 07:37:35;;;;;;;25.05;4.07;;;;;;;;;;5081729;28;20063;-69
2022/05/03 07:40:03;;;;;;;20.27;3.60;;;;;;;;;;5088102;28;20044;-70
2022/05/03 07:42:30;;;;;;;22.33;4.05;;;;;;;;;;5085360;28;20514;-70
2022/05/03 07:44:57;;;;;;;17.52;3.45;;;;;;;;;;5086196;28;20051;-70
2022/05/03 07:47:24;;;;;;;16.92;3.30;;;;;;;;;;5086967;28;20055;-70
2022/05/03 07:49:53;;;;;;;16.77;3.05;;;;;;;;;;5080778;28;20062;-70
2022/05/03 07:52:20;;;;;;;13.05;3.13;;;;;;;;;;5086026;28;20048;-70
2022/05/03 07:54:47;;;;;;;18.17;3.13;;;;;;;;;;5081977;28;20051;-69
2022/05/03 07:57:15;;;;;;;18.27;3.38;;;;;;;;;;5085377;28;20140;-69
2022/05/03 07:59:42;;;;;;;15.77;3.70;;;;;;;;;;5085445;28;20883;-69
2022/05/03 08:02:09;;;;;;;14.85;3.63;;;;;;;;;;5081309;28;20081;-69
2022/05/03 08:04:36;;;;;;;20.20;3.75;;;;;;;;;;5086129;28;20063;-70
2022/05/03 08:07:05;;;;;;;18.10;3.45;;;;;;;;;;5084898;28;20481;-69
2022/05/03 08:09:34;;;;;;;17.08;3.40;;;;;;;;;;5086273;28;20424;-69
2022/05/03 08:12:02;;;;;;;19.45;3.60;;;;;;;;;;5088671;28;20050;-69
2022/05/03 08:14:29;;;;;;;16.55;3.45;;;;;;;;;;5085733;28;20805;-69
2022/05/03 08:16:56;;;;;;;19.05;3.13;;;;;;;;;;5085517;28;20055;-69
2022/05/03 08:19:23;;;;;;;15.73;3.40;;;;;;;;;;5085869;28;20534;-70
2022/05/03 08:21:52;;;;;;;18.67;3.75;;;;;;;;;;5079950;28;20060;-70
2022/05/03 08:24:21;;;;;;;22.40;3.55;;;;;;;;;;5097432;28;20060;-70
2022/05/03 08:26:48;;;;;;;13.93;3.20;;;;;;;;;;5083988;28;20052;-70
2022/05/03 08:29:15;;;;;;;18.77;3.78;;;;;;;;;;5085023;28;20060;-70
2022/05/03 08:31:43;;;;;;;15.02;3.08;;;;;;;;;;5080665;28;20048;-70
2022/05/03 08:34:10;;;;;;;14.95;3.45;;;;;;;;;;5088247;28;20048;-70
2022/05/03 08:36:38;;;;;;;17.52;3.33;;;;;;;;;;5086038;28;20513;-70
2022/05/03 08:42:06;;;;;;;18.65;3.55;;;;;;;;;;5087300;28;20050;-70
2022/05/03 08:44:34;;;;;;;23.45;3.05;;;;;;;;;;5081691;28;20056;-69
2022/05/03 08:47:02;;;;;;;13.30;3.47;;;;;;;;;;5084845;28;20094;-69
2022/05/03 08:49:33;;;;;;;22.27;3.17;;;;;;;;;;5087194;28;20052;-70
2022/05/03 08:52:04;;;;;;;18.42;3.40;;;;;;;;;;5085036;28;20055;-70
2022/05/03 08:54:32;;;;;;;17.23;2.95;;;;;;;;;;5089156;28;20082;-70
2022/05/03 08:57:05;;;;;;;16.08;3.20;;;;;;;;;;5087491;28;20054;-70
2022/05/03 08:59:32;;;;;;;;;;;;;;;;;;5086963;28;20058;-70
2022/05/03 09:01:59;;;;;;;14.25;3.03;;;;;;;;;;5087325;28;19924;-70
2022/05/03 09:04:26;;;;;;;19.65;3.38;;;;;;;;;;5088243;28;20051;-70
2022/05/03 09:06:54;;;;;;;13.38;2.88;;;;;;;;;;5078062;28;20079;-70
2022/05/03 09:09:22;;;;;;;12.93;3.15;;;;;;;;;;5084667;28;20056;-70
2022/05/03 09:11:50;;;;;;;15.35;2.70;;;;;;;;;;5085493;28;20775;-70
2022/05/03 09:14:36;;;;;;;18.63;4.22;;;;;;;;;;5088653;28;20112;-70
2022/05/03 09:17:03;;;;;;;14.90;2.70;;;;;;;;;;5085209;28;20131;-70
2022/05/03 09:19:30;;;;;;;18.08;3.15;;;;;;;;;;5095006;28;20050;-70
2022/05/03 09:24:53;;;;;;;11.52;3.08;;;;;;;;;;5092161;28;20048;-70
2022/05/03 09:27:20;;;;;;;12.02;2.65;;;;;;;;;;5095890;28;20040;-70
2022/05/03 09:30:01;;;;;;;11.77;2.88;;;;;;;;;;5096156;28;20052;-70
2022/05/03 09:32:35;;;;;;;15.38;3.40;;;;;;;;;;5089875;28;20047;-70
2022/05/03 09:35:02;;;;;;;10.95;2.53;;;;;;;;;;5086993;28;20048;-70
2022/05/03 09:37:39;;;;;;;14.23;2.80;;;;;;;;;;5088368;28;20140;-70
2022/05/03 09:40:08;;;;;;;10.63;2.30;;;;;;;;;;5092196;28;20078;-70
2022/05/03 09:42:36;;;;;;;11.68;2.67;;;;;;;;;;5088942;28;20048;-70
2022/05/03 09:45:08;;;;;;;11.43;2.38;;;;;;;;;;5088839;28;20060;-70
2022/05/03 09:47:48;;;;;;;13.43;2.40;;;;;;;;;;5087260;28;20048;-70
2022/05/03 09:50:25;;;;;;;10.90;2.40;;;;;;;;;;5085054;28;20052;-70
2022/05/03 09:52:52;;;;;;;10.27;1.88;;;;;;;;;;5085091;28;20052;-70
2022/05/03 09:55:30;;;;;;;11.73;2.00;;;;;;;;;;5087892;28;20062;-70
2022/05/03 09:58:01;;;;;;;7.80;2.17;;;;;;;;;;5093102;28;20047;-70
2022/05/03 10:00:30;;;;;;;11.50;2.60;;;;;;;;;;5096336;28;20043;-70
2022/05/03 10:02:57;;;;;;;11.80;2.28;;;;;;;;;;5090319;28;20435;-70
2022/05/03 10:05:26;;;;;;;7.78;2.17;;;;;;;;;;5090635;28;20051;-70
2022/05/03 10:07:53;;;;;;;10.05;2.15;;;;;;;;;;5091673;28;20126;-70
2022/05/03 10:10:21;;;;;;;8.20;1.70;;;;;;;;;;5092138;28;20137;-70
2022/05/03 10:12:50;;;;;;;13.32;2.35;;;;;;;;;;5088280;28;20048;-70
2022/05/03 10:20:56;;;;;;;7.20;1.65;;;;;;;;;;5092298;28;20086;-70
2022/05/03 10:23:24;;;;;;;8.52;2.03;;;;;;;;;;5089139;28;20050;-70
2022/05/03 10:25:56;;;;;;;8.65;1.70;;;;;;;;;;5085816;28;20113;-70
2022/05/03 10:28:24;;;;;;;7.07;2.15;;;;;;;;;;5086950;28;20047;-70
2022/05/03 10:31:12;;;;;;;8.40;1.73;;;;;;;;;;5085255;28;20425;-70
2022/05/03 10:33:41;;;;;;;9.70;2.10;;;;;;;;;;5084150;28;20065;-70
2022/05/03 10:36:39;;;;;;;6.32;1.67;;;;;;;;;;5082071;28;20044;-70
2022/05/03 10:39:06;;;;;;;9.93;2.63;;;;;;;;;;5023825;28;20053;-70
2022/05/03 10:41:53;;;;;;;7.88;1.88;;;;;;;;;;5060539;28;20052;-70
2022/05/03 10:44:48;;;;;;;6.90;1.75;;;;;;;;;;5078598;28;20120;-70
2022/05/03 10:47:22;;;;;;;10.07;2.20;;;;;;;;;;5038950;28;20052;-70
2022/05/03 10:50:07;;;;;;;8.48;1.67;;;;;;;;;;5085933;28;20063;-70
2022/05/03 10:52:36;;;;;;;8.23;1.83;;;;;;;;;;5085863;28;20121;-70
2022/05/03 10:55:07;;;;;;;8.90;2.13;;;;;;;;;;5091050;27;20048;-70
2022/05/03 10:57:34;;;;;;;8.20;1.80;;;;;;;;;;5090494;28;20051;-70
2022/05/03 11:00:01;;;;;;;11.88;2.47;;;;;;;;;;5086613;28;20494;-70
2022/05/03 11:02:31;;;;;;;6.57;1.67;;;;;;;;;;5088807;28;20055;-70
2022/05/03 11:05:18;;;;;;;11.52;1.85;;;;;;;;;;5090071;28;20482;-70
2022/05/03 11:08:05;;;;;;;9.27;1.92;;;;;;;;;;5087541;28;20047;-70
2022/05/03 11:10:43;;;;;;;10.43;1.75;;;;;;;;;;5089991;28;20166;-70
2022/05/03 11:13:25;;;;;;;8.57;1.77;;;;;;;;;;5087150;28;20055;-70
2022/05/03 11:16:07;;;;;;;7.38;1.90;;;;;;;;;;5085672;28;20060;-70
2022/05/03 11:18:34;;;;;;;9.95;2.08;;;;;;;;;;5075409;28;20052;-70
2022/05/03 11:21:14;;;;;;;7.72;1.77;;;;;;;;;;5089008;28;20048;-70
2022/05/03 11:23:48;;;;;;;9.98;2.05;;;;;;;;;;5086320;28;20055;-71
2022/05/03 11:26:17;;;;;;;10.70;1.73;;;;;;;;;;5080397;28;20060;-70
2022/05/03 11:28:46;;;;;;;8.20;1.60;;;;;;;;;;5085113;28;20098;-70
2022/05/03 11:31:14;;;;;;;10.65;1.98;;;;;;;;;;5089450;28;20095;-70
2022/05/03 11:33:49;;;;;;;6.85;1.73;;;;;;;;;;5081158;28;20109;-70
2022/05/03 11:36:16;;;;;;;10.05;2.05;;;;;;;;;;5083453;28;20152;-70
2022/05/03 11:38:44;;;;;;;5.80;1.77;;;;;;;;;;5081483;28;20056;-70
2022/05/03 11:41:11;;;;;;;7.43;1.75;;;;;;;;;;5081577;28;20055;-70
2022/05/03 11:43:39;;;;;;;7.75;2.03;;;;;;;;;;5078694;28;20044;-70
2022/05/03 11:46:06;;;;;;;9.20;1.90;;;;;;;;;;5078038;28;20040;-70
2022/05/03 11:48:34;;;;;;;7.93;2.05;;;;;;;;;;5081256;28;20044;-70
2022/05/03 11:56:31;;;;;;;6.63;2.03;;;;;;;;;;5076613;28;20847;-70
2022/05/03 11:59:01;;;;;;;7.75;1.92;;;;;;;;;;5081158;28;20117;-70
2022/05/03 12:01:33;;;;;;;8.43;2.00;;;;;;;;;;5081574;28;20048;-70
2022/05/03 12:04:02;;;;;;;7.28;2.00;;;;;;;;;;5076700;28;20701;-70
2022/05/03 12:06:43;;;;;;;13.50;2.55;;;;;;;;;;5082468;28;20078;-70
2022/05/03 12:09:11;;;;;;;14.40;2.42;;;;;;;;;;5081380;28;20052;-70
2022/05/03 12:12:42;;;;;;;14.63;2.60;;;;;;;;;;5085741;28;20631;-70
2022/05/03 12:14:36;;;;;;;10.07;2.28;;;;;;;;;;5085069;28;20074;-70
2022/05/03 12:17:04;;;;;;;6.65;2.03;;;;;;;;;;5083864;28;20059;-70
2022/05/03 12:19:34;;;;;;;12.02;2.30;;;;;;;;;;5087661;28;20686;-70
2022/05/03 12:22:08;;;;;;;12.70;2.40;;;;;;;;;;5086925;28;20060;-70
2022/05/03 12:24:37;;;;;;;7.15;2.10;;;;;;;;;;5081684;28;20091;-70
2022/05/03 12:27:10;;;;;;;8.20;1.73;;;;;;;;;;5086063;28;20054;-70
2022/05/03 12:29:44;;;;;;;9.95;2.53;;;;;;;;;;5085854;28;20545;-70
2022/05/03 12:32:15;;;;;;;10.95;2.40;;;;;;;;;;5087335;28;20052;-71
2022/05/03 12:34:42;;;;;;;9.40;2.13;;;;;;;;;;5085994;28;20063;-70
2022/05/03 12:37:10;;;;;;;7.28;2.20;;;;;;;;;;5083651;28;20539;-70
2022/05/03 12:39:37;;;;;;;8.38;2.30;;;;;;;;;;5077817;28;20490;-70
2022/05/03 12:42:10;;;;;;;10.43;1.95;;;;;;;;;;5091501;28;20052;-70
2022/05/03 12:44:49;;;;;;;10.30;2.55;;;;;;;;;;5086191;28;20049;-70
2022/05/03 12:47:17;;;;;;;7.35;2.45;;;;;;;;;;5084897;28;20135;-70
2022/05/03 12:49:44;;;;;;;6.35;2.10;;;;;;;;;;5085313;28;20091;-70
2022/05/03 12:52:11;;;;;;;11.80;2.25;;;;;;;;;;5084968;28;20112;-70
2022/05/03 12:54:42;;;;;;;9.60;2.33;;;;;;;;;;5086516;28;20105;-70
2022/05/03 12:59:56;;;;;;;6.65;2.22;;;;;;;;;;5088541;28;20521;-70
2022/05/03 13:02:24;;;;;;;6.18;2.25;;;;;;;;;;5084424;28;20048;-71
2022/05/03 13:04:51;;;;;;;11.70;2.80;;;;;;;;;;5082664;28;20528;-71
2022/05/03 13:07:19;;;;;;;9.60;2.17;;;;;;;;;;5081066;28;20109;-71
2022/05/03 13:09:46;;;;;;;7.40;2.30;;;;;;;;;;5081153;28;20671;-71
2022/05/03 13:12:13;;;;;;;9.07;2.17;;;;;;;;;;5085630;28;20056;-71
2022/05/03 13:14:40;;;;;;;5.07;1.98;;;;;;;;;;5083423;28;20494;-71
2022/05/03 13:17:09;;;;;;;8.43;2.45;;;;;;;;;;5086466;28;20096;-71
2022/05/03 13:19:36;;;;;;;11.35;2.08;;;;;;;;;;5084526;28;20063;-70
2022/05/03 13:22:03;;;;;;;6.93;2.08;;;;;;;;;;5086790;28;20048;-71
2022/05/03 13:24:30;;;;;;;8.27;2.58;;;;;;;;;;5080864;28;20125;-70
2022/05/03 13:26:58;;;;;;;8.60;2.53;;;;;;;;;;5077892;28;20065;-70
2022/05/03 13:29:26;;;;;;;8.70;2.40;;;;;;;;;;5080375;28;20109;-70
2022/05/03 13:31:53;;;;;;;6.20;2.17;;;;;;;;;;5074814;28;20065;-70
2022/05/03 13:34:22;;;;;;;9.63;2.75;;;;;;;;;;5096142;28;20048;-70
2022/05/03 13:42:19;;;;;;;7.43;2.28;;;;;;;;;;5076282;28;20054;-71
2022/05/03 13:44:46;;;;;;;8.75;2.40;;;;;;;;;;5079274;28;20078;-71
2022/05/03 13:47:14;;;;;;;9.32;2.47;;;;;;;;;;5082792;28;20102;-70
2022/05/03 13:49:43;;;;;;;6.60;2.47;;;;;;;;;;5077411;28;20374;-70
2022/05/03 13:52:10;;;;;;;10.15;2.28;;;;;;;;;;5080795;28;20487;-71
2022/05/03 13:54:37;;;;;;;10.65;2.63;;;;;;;;;;5078739;28;20047;-71
2022/05/03 13:57:05;;;;;;;5.95;2.30;;;;;;;;;;5079729;28;20044;-70
2022/05/03 13:59:33;;;;;;;8.05;2.38;;;;;;;;;;5082096;28;20120;-71
2022/05/03 14:02:00;;;;;;;7.35;2.45;;;;;;;;;;5086071;28;20040;-71
2022/05/03 14:04:29;;;;;;;9.20;2.40;;;;;;;;;;5077117;28;20527;-71
2022/05/03 14:06:58;;;;;;;7.35;2.40;;;;;;;;;;5085994;28;20480;-71
2022/05/03 14:09:25;;;;;;;7.10;2.55;;;;;;;;;;5086055;28;20351;-70
2022/05/03 14:11:52;;;;;;;4.57;1.90;;;;;;;;;;5079297;28;20118;-70
2022/05/03 14:14:19;;;;;;;6.43;2.30;;;;;;;;;;5081432;28;20060;-71
2022/05/03 14:16:47;;;;;;;6.70;2.22;;;;;;;;;;5083195;28;20044;-71
2022/05/03 14:19:14;;;;;;;9.88;2.55;;;;;;;;;;5082367;28;20129;-71
2022/05/03 14:21:41;;;;;;;6.38;2.20;;;;;;;;;;5084107;28;20109;-71
2022/05/03 14:24:10;;;;;;;7.38;2.25;;;;;;;;;;5085094;28;20426;-71
2022/05/03 14:26:37;;;;;;;10.05;2.35;;;;;;;;;;5079307;28;20109;-70
2022/05/03 14:29:04;;;;;;;6.35;2.53;;;;;;;;;;5085305;28;20048;-70
2022/05/03 14:31:33;;;;;;;7.50;2.20;;;;;;;;;;5084665;28;20825;-70
2022/05/03 14:34:00;;;;;;;6.85;2.05;;;;;;;;;;5087638;28;20490;-70
2022/05/03 14:36:27;;;;;;;10.10;2.60;;;;;;;;;;5086991;28;20052;-70
2022/05/03 14:38:54;;;;;;;10.60;2.55;;;;;;;;;;5088025;28;20051;-71
2022/05/03 14:41:23;;;;;;;11.15;2.95;;;;;;;;;;5088504;28;20115;-70
2022/05/03 14:43:50;;;;;;;11.00;2.40;;;;;;;;;;5087539;28;20062;-70
2022/05/03 14:46:17;;;;;;;6.72;2.08;;;;;;;;;;5088508;28;20059;-70
2022/05/03 14:48:45;;;;;;;9.57;2.13;;;;;;;;;;5087573;28;20056;-70
2022/05/03 14:51:12;;;;;;;13.75;2.80;;;;;;;;;;5086892;28;20060;-70
2022/05/03 14:53:40;;;;;;;8.23;2.25;;;;;;;;;;5088343;28;20056;-70
2022/05/03 15:04:37;;;;;;;13.52;2.85;;;;;;;;;;5073298;28;20059;-70
2022/05/03 15:07:04;;;;;;;12.18;2.40;;;;;;;;;;5087550;28;20048;-70
2022/05/03 15:09:31;;;;;;;12.23;2.40;;;;;;;;;;5083601;28;20051;-70
2022/05/03 15:11:58;;;;;;;8.77;2.60;;;;;;;;;;5088064;28;20055;-70
2022/05/03 15:14:27;;;;;;;11.27;2.70;;;;;;;;;;5086468;28;20490;-70
2022/05/03 15:16:54;;;;;;;8.73;2.15;;;;;;;;;;5086296;28;20044;-70
2022/05/03 15:19:21;;;;;;;9.13;2.40;;;;;;;;;;5085877;28;20051;-69
2022/05/03 15:21:49;;;;;;;8.52;2.10;;;;;;;;;;5085752;28;20113;-69
2022/05/03 15:27:01;;;;;;;8.60;2.13;;;;;;;;;;5085071;28;20039;-69
2022/05/03 15:29:29;;;;;;;7.65;2.30;;;;;;;;;;5085712;28;20056;-70
2022/05/03 15:31:57;;;;;;;9.38;2.10;;;;;;;;;;5087013;28;20047;-69
2022/05/03 15:34:24;;;;;;;7.20;2.10;;;;;;;;;;5087236;28;20059;-69